Time;durP1;ratioP1;P1;durP2;ratioP2;P2;SDS_P1;SDS_P2;PMS_P1;PMS_P2;Temp;Humidity;BMP_temperature;BMP_pressure;BME280_temperature;BME280_humidity;BME280_pressure;Samples;Min_cycle;Max_cycle;Signal;HPM_P1;HPM_P2
2022/05/17 00:00:27;;;;;;;6.60;5.90;;;;;;;;;;5064856;28;25091;-46
2022/05/17 00:02:52;;;;;;;6.70;5.50;;;;;;;;;;5051838;28;24438;-46
2022/05/17 00:05:17;;;;;;;6.17;5.60;;;;;;;;;;5062335;28;24426;-46
2022/05/17 00:07:42;;;;;;;6.20;5.70;;;;;;;;;;5070682;28;24539;-46
2022/05/17 00:10:08;;;;;;;6.65;6.05;;;;;;;;;;5059596;28;25032;-46
2022/05/17 00:12:33;;;;;;;6.28;5.68;;;;;;;;;;5068495;28;24430;-46
2022/05/17 00:14:58;;;;;;;6.63;6.03;;;;;;;;;;5050436;28;24885;-46
2022/05/17 00:17:24;;;;;;;6.90;6.30;;;;;;;;;;5060473;28;24429;-46
2022/05/17 00:19:49;;;;;;;6.43;5.83;;;;;;;;;;5055278;28;24419;-46
2022/05/17 00:22:14;;;;;;;6.50;5.97;;;;;;;;;;5069446;28;24427;-46
2022/05/17 00:24:39;;;;;;;6.07;5.57;;;;;;;;;;5061838;28;24475;-46
2022/05/17 00:27:05;;;;;;;7.30;6.60;;;;;;;;;;5061590;28;24565;-46
2022/05/17 00:29:30;;;;;;;6.17;5.67;;;;;;;;;;5055445;28;24430;-46
2022/05/17 00:31:55;;;;;;;6.80;6.10;;;;;;;;;;5064573;28;24434;-46
2022/05/17 00:34:22;;;;;;;7.40;6.80;;;;;;;;;;5062234;28;24426;-46
2022/05/17 00:36:47;;;;;;;7.57;6.10;;;;;;;;;;5073070;28;24513;-45
2022/05/17 00:39:12;;;;;;;6.90;6.20;;;;;;;;;;5060922;28;25109;-46
2022/05/17 00:41:37;;;;;;;6.80;6.30;;;;;;;;;;5054231;28;24437;-45
2022/05/17 00:46:55;;;;;;;6.60;6.07;;;;;;;;;;5064063;28;24476;-45
2022/05/17 00:49:26;;;;;;;7.40;6.80;;;;;;;;;;5061033;28;24427;-45
2022/05/17 00:51:53;;;;;;;7.10;6.50;;;;;;;;;;5063534;28;24435;-46
2022/05/17 00:54:18;;;;;;;6.90;6.40;;;;;;;;;;5062650;28;24961;-46
2022/05/17 00:56:57;;;;;;;7.20;6.57;;;;;;;;;;5078228;28;24525;-46
2022/05/17 00:59:23;;;;;;;7.13;6.53;;;;;;;;;;5064438;28;24476;-46
2022/05/17 01:01:48;;;;;;;6.55;6.05;;;;;;;;;;5057281;28;24538;-46
2022/05/17 01:04:20;;;;;;;6.70;6.20;;;;;;;;;;5061018;28;24427;-46
2022/05/17 01:06:48;;;;;;;6.82;6.20;;;;;;;;;;5074040;28;24422;-47
2022/05/17 01:09:13;;;;;;;7.00;6.40;;;;;;;;;;5077901;28;24481;-46
2022/05/17 01:11:39;;;;;;;6.43;5.83;;;;;;;;;;5064540;28;25012;-46
2022/05/17 01:16:48;;;;;;;6.95;6.35;;;;;;;;;;5057149;28;24477;-46
2022/05/17 01:19:13;;;;;;;7.60;6.90;;;;;;;;;;5064586;28;24806;-46
2022/05/17 01:21:39;;;;;;;7.00;6.40;;;;;;;;;;5065254;28;24469;-46
2022/05/17 01:24:04;;;;;;;7.37;6.77;;;;;;;;;;5061021;28;24575;-46
2022/05/17 01:26:30;;;;;;;9.77;7.40;;;;;;;;;;5063895;28;24831;-46
2022/05/17 01:28:55;;;;;;;7.13;6.60;;;;;;;;;;5057114;28;24434;-49
2022/05/17 01:31:21;;;;;;;7.00;6.50;;;;;;;;;;5066358;28;25496;-46
2022/05/17 01:33:46;;;;;;;7.30;6.70;;;;;;;;;;5047625;28;24419;-46
2022/05/17 01:36:12;;;;;;;7.17;6.57;;;;;;;;;;5060551;28;24515;-47
2022/05/17 01:38:38;;;;;;;7.47;6.85;;;;;;;;;;5057956;28;24476;-47
2022/05/17 01:41:03;;;;;;;7.80;7.10;;;;;;;;;;5057245;28;24530;-47
2022/05/17 01:43:28;;;;;;;7.43;6.83;;;;;;;;;;5056238;28;24571;-47
2022/05/17 01:45:54;;;;;;;7.60;7.03;;;;;;;;;;5064618;28;24515;-46
2022/05/17 01:48:19;;;;;;;8.07;7.47;;;;;;;;;;5062683;28;24525;-46
2022/05/17 01:50:45;;;;;;;8.00;7.30;;;;;;;;;;5062484;28;24438;-46
2022/05/17 01:53:10;;;;;;;7.40;6.80;;;;;;;;;;5060805;28;24518;-46
2022/05/17 01:55:36;;;;;;;8.23;7.60;;;;;;;;;;5063353;28;24423;-46
2022/05/17 01:58:01;;;;;;;8.73;7.90;;;;;;;;;;5078150;28;24440;-46
2022/05/17 02:00:26;;;;;;;8.20;7.60;;;;;;;;;;5057567;28;25158;-46
2022/05/17 02:02:52;;;;;;;8.70;7.90;;;;;;;;;;5056599;28;24953;-46
2022/05/17 02:05:18;;;;;;;9.30;8.60;;;;;;;;;;5057013;28;24450;-46
2022/05/17 02:07:44;;;;;;;10.20;9.20;;;;;;;;;;5061646;28;24789;-46
2022/05/17 02:10:09;;;;;;;9.87;8.97;;;;;;;;;;5057716;28;24448;-46
2022/05/17 02:12:34;;;;;;;11.40;10.10;;;;;;;;;;5060673;28;24430;-46
2022/05/17 02:14:59;;;;;;;10.50;9.70;;;;;;;;;;5063912;28;24422;-46
2022/05/17 02:17:24;;;;;;;10.73;9.82;;;;;;;;;;5061737;28;24426;-46
2022/05/17 02:19:49;;;;;;;11.75;10.65;;;;;;;;;;5055722;28;24423;-46
2022/05/17 02:22:15;;;;;;;11.00;10.10;;;;;;;;;;5057039;28;24423;-46
2022/05/17 02:24:40;;;;;;;11.80;10.80;;;;;;;;;;5062353;28;25210;-46
2022/05/17 02:27:05;;;;;;;11.20;10.30;;;;;;;;;;5054502;28;24430;-46
2022/05/17 02:29:30;;;;;;;12.18;11.18;;;;;;;;;;5058234;28;24459;-46
2022/05/17 02:31:56;;;;;;;11.82;10.82;;;;;;;;;;5056197;28;24439;-46
2022/05/17 02:34:21;;;;;;;12.20;11.20;;;;;;;;;;5062244;28;24419;-46
2022/05/17 02:36:46;;;;;;;12.20;11.30;;;;;;;;;;5059067;28;24502;-46
2022/05/17 02:39:12;;;;;;;13.27;12.13;;;;;;;;;;5066115;28;25015;-46
2022/05/17 02:41:37;;;;;;;12.93;11.83;;;;;;;;;;5082688;28;24418;-46
2022/05/17 02:44:02;;;;;;;14.25;13.05;;;;;;;;;;5063500;28;24434;-46
2022/05/17 02:46:28;;;;;;;13.10;12.00;;;;;;;;;;5062009;28;24518;-46
2022/05/17 02:48:53;;;;;;;14.00;12.80;;;;;;;;;;5066605;28;24434;-46
2022/05/17 02:51:19;;;;;;;14.20;12.80;;;;;;;;;;5057821;28;24434;-46
2022/05/17 02:53:44;;;;;;;15.67;14.27;;;;;;;;;;5052961;28;24515;-46
2022/05/17 02:56:10;;;;;;;15.60;14.10;;;;;;;;;;5062397;28;24512;-46
2022/05/17 02:58:35;;;;;;;14.43;13.13;;;;;;;;;;5054154;28;24439;-46
2022/05/17 03:01:00;;;;;;;14.10;12.90;;;;;;;;;;5048697;28;24957;-46
2022/05/17 03:03:26;;;;;;;16.00;14.70;;;;;;;;;;5056854;28;25042;-46
2022/05/17 03:05:51;;;;;;;16.10;14.80;;;;;;;;;;5066435;28;24466;-46
2022/05/17 03:08:16;;;;;;;17.90;16.30;;;;;;;;;;5060950;28;24518;-46
2022/05/17 03:10:41;;;;;;;18.10;16.60;;;;;;;;;;5058680;28;24426;-46
2022/05/17 03:13:09;;;;;;;17.85;16.15;;;;;;;;;;5057147;28;24547;-46
2022/05/17 03:15:34;;;;;;;18.70;17.10;;;;;;;;;;5067608;28;24444;-46
2022/05/17 03:17:59;;;;;;;17.30;15.90;;;;;;;;;;5070520;28;25038;-46
2022/05/17 03:20:24;;;;;;;19.48;17.77;;;;;;;;;;5065187;28;24422;-46
2022/05/17 03:22:49;;;;;;;19.40;17.90;;;;;;;;;;5066341;28;24490;-46
2022/05/17 03:25:15;;;;;;;20.30;18.50;;;;;;;;;;5067768;28;24787;-47
2022/05/17 03:27:40;;;;;;;20.58;18.67;;;;;;;;;;5053614;28;24423;-46
2022/05/17 03:30:05;;;;;;;20.60;18.90;;;;;;;;;;5058083;28;24476;-47
2022/05/17 03:32:30;;;;;;;22.83;20.87;;;;;;;;;;5062850;28;24433;-46
2022/05/17 03:34:56;;;;;;;22.08;20.30;;;;;;;;;;5071366;28;24427;-45
2022/05/17 03:37:21;;;;;;;22.17;20.13;;;;;;;;;;5063578;28;24821;-44
2022/05/17 03:39:46;;;;;;;21.70;19.90;;;;;;;;;;5066647;28;24422;-45
2022/05/17 03:42:13;;;;;;;22.10;20.30;;;;;;;;;;5076790;28;24419;-46
2022/05/17 03:44:38;;;;;;;21.60;19.70;;;;;;;;;;5052612;28;24435;-47
2022/05/17 03:47:05;;;;;;;21.73;19.90;;;;;;;;;;5044822;28;24450;-45
2022/05/17 03:49:30;;;;;;;21.30;19.60;;;;;;;;;;5066715;28;24407;-45
2022/05/17 03:51:55;;;;;;;18.50;16.95;;;;;;;;;;5065488;28;24476;-46
2022/05/17 03:54:22;;;;;;;21.17;19.48;;;;;;;;;;5069813;28;24456;-46
2022/05/17 03:56:47;;;;;;;18.90;17.30;;;;;;;;;;5074204;28;24417;-46
2022/05/17 03:59:12;;;;;;;20.40;18.70;;;;;;;;;;5067060;28;24466;-45
2022/05/17 04:01:37;;;;;;;17.50;15.90;;;;;;;;;;5069851;28;25017;-46
2022/05/17 04:04:02;;;;;;;19.85;18.25;;;;;;;;;;5066432;28;24467;-46
2022/05/17 04:06:27;;;;;;;18.13;16.43;;;;;;;;;;5064904;28;24445;-47
2022/05/17 04:08:53;;;;;;;18.53;17.03;;;;;;;;;;5073018;28;24421;-47
2022/05/17 04:11:18;;;;;;;19.25;17.75;;;;;;;;;;5076409;28;24541;-46
2022/05/17 04:13:43;;;;;;;19.40;17.90;;;;;;;;;;5054833;28;24446;-46
2022/05/17 04:16:08;;;;;;;17.00;15.40;;;;;;;;;;5055315;28;24837;-46
2022/05/17 04:18:33;;;;;;;16.07;14.73;;;;;;;;;;5072286;28;24402;-46
2022/05/17 04:21:00;;;;;;;17.45;15.88;;;;;;;;;;5067097;28;24561;-47
2022/05/17 04:23:25;;;;;;;14.68;13.48;;;;;;;;;;5066044;28;24513;-46
2022/05/17 04:25:50;;;;;;;14.00;12.70;;;;;;;;;;5061354;28;25055;-46
2022/05/17 04:28:17;;;;;;;12.40;11.40;;;;;;;;;;5076005;28;24418;-45
2022/05/17 04:30:43;;;;;;;12.48;10.80;;;;;;;;;;5051935;28;24474;-45
2022/05/17 04:33:09;;;;;;;13.07;11.77;;;;;;;;;;5049953;28;24442;-46
2022/05/17 04:35:34;;;;;;;13.00;11.80;;;;;;;;;;5051415;28;25041;-47
2022/05/17 04:38:00;;;;;;;14.87;13.47;;;;;;;;;;5049266;28;24465;-46
2022/05/17 04:40:25;;;;;;;12.90;11.70;;;;;;;;;;5070378;28;24476;-47
2022/05/17 04:42:53;;;;;;;12.67;11.57;;;;;;;;;;5059818;28;24850;-46
2022/05/17 04:45:18;;;;;;;11.20;10.30;;;;;;;;;;5063949;28;24419;-46
2022/05/17 04:47:44;;;;;;;10.80;9.80;;;;;;;;;;5066914;28;24757;-46
2022/05/17 04:50:10;;;;;;;10.85;9.85;;;;;;;;;;5057421;28;24426;-45
2022/05/17 04:52:35;;;;;;;10.45;9.55;;;;;;;;;;5053475;28;24427;-46
2022/05/17 04:55:00;;;;;;;10.67;9.83;;;;;;;;;;5075787;28;24829;-46
2022/05/17 04:57:26;;;;;;;10.73;9.93;;;;;;;;;;5068103;28;24439;-46
2022/05/17 04:59:51;;;;;;;11.40;10.60;;;;;;;;;;5049334;28;24945;-46
2022/05/17 05:02:16;;;;;;;10.63;9.83;;;;;;;;;;5049811;28;24392;-46
2022/05/17 05:04:41;;;;;;;12.20;11.20;;;;;;;;;;5055242;28;24427;-46
2022/05/17 05:07:07;;;;;;;13.20;12.00;;;;;;;;;;5069895;28;24423;-46
2022/05/17 05:09:32;;;;;;;15.83;11.20;;;;;;;;;;5069492;28;24403;-46
2022/05/17 05:11:58;;;;;;;12.82;11.73;;;;;;;;;;5069551;28;24410;-46
2022/05/17 05:14:23;;;;;;;12.33;11.13;;;;;;;;;;5069295;28;24399;-46
2022/05/17 05:16:48;;;;;;;12.95;11.75;;;;;;;;;;5075991;28;24422;-46
2022/05/17 05:19:13;;;;;;;13.13;11.93;;;;;;;;;;5089673;28;24497;-46
2022/05/17 05:21:38;;;;;;;12.68;11.57;;;;;;;;;;5089541;28;24763;-46
2022/05/17 05:24:04;;;;;;;12.85;11.75;;;;;;;;;;5089292;28;24405;-46
2022/05/17 05:26:31;;;;;;;15.10;13.70;;;;;;;;;;5085163;28;24488;-46
2022/05/17 05:28:56;;;;;;;13.43;12.23;;;;;;;;;;5089663;28;24475;-46
2022/05/17 05:31:21;;;;;;;13.50;12.30;;;;;;;;;;5089114;28;24899;-46
2022/05/17 05:33:47;;;;;;;13.20;12.00;;;;;;;;;;5089093;28;24697;-46
2022/05/17 05:36:12;;;;;;;14.00;12.90;;;;;;;;;;5089165;28;24644;-45
2022/05/17 05:38:37;;;;;;;12.00;11.10;;;;;;;;;;5081683;28;24418;-46
2022/05/17 05:41:02;;;;;;;13.02;11.82;;;;;;;;;;5088678;28;24406;-47
2022/05/17 05:43:28;;;;;;;12.10;11.10;;;;;;;;;;5065737;28;24419;-46
2022/05/17 05:45:53;;;;;;;11.43;10.43;;;;;;;;;;5060835;28;24403;-46
2022/05/17 05:48:18;;;;;;;13.10;11.70;;;;;;;;;;5067705;28;24653;-46
2022/05/17 05:50:44;;;;;;;12.23;11.23;;;;;;;;;;5054817;28;24419;-46
2022/05/17 05:53:10;;;;;;;12.07;10.95;;;;;;;;;;5060110;28;24521;-46
2022/05/17 05:55:37;;;;;;;13.60;12.30;;;;;;;;;;5066222;28;24468;-46
2022/05/17 05:58:03;;;;;;;12.05;11.15;;;;;;;;;;5066158;28;24393;-46
2022/05/17 06:00:28;;;;;;;13.10;11.90;;;;;;;;;;5066607;28;24795;-46
2022/05/17 06:02:54;;;;;;;12.10;10.90;;;;;;;;;;5053883;28;24961;-46
2022/05/17 06:05:21;;;;;;;12.63;11.50;;;;;;;;;;5067079;28;24993;-46
2022/05/17 06:07:46;;;;;;;11.95;10.90;;;;;;;;;;5060023;28;24534;-46
2022/05/17 06:10:12;;;;;;;13.57;12.17;;;;;;;;;;5080481;28;24521;-46
2022/05/17 06:12:37;;;;;;;11.75;10.65;;;;;;;;;;5072060;28;24525;-46
2022/05/17 06:15:03;;;;;;;11.90;10.90;;;;;;;;;;5068744;28;24517;-46
2022/05/17 06:17:28;;;;;;;12.37;11.17;;;;;;;;;;5057751;28;24458;-46
2022/05/17 06:19:55;;;;;;;11.83;10.80;;;;;;;;;;5067525;28;24423;-46
2022/05/17 06:22:20;;;;;;;11.52;10.40;;;;;;;;;;5068213;28;24754;-46
2022/05/17 06:24:45;;;;;;;10.90;9.90;;;;;;;;;;5064770;28;24999;-46
2022/05/17 06:27:10;;;;;;;11.57;10.48;;;;;;;;;;5062115;28;24462;-46
2022/05/17 06:29:36;;;;;;;10.60;9.60;;;;;;;;;;5067754;28;24447;-46
2022/05/17 06:32:01;;;;;;;12.50;11.40;;;;;;;;;;5067945;28;24433;-46
2022/05/17 06:34:26;;;;;;;11.53;10.50;;;;;;;;;;5052027;28;24465;-46
2022/05/17 06:36:51;;;;;;;11.10;10.10;;;;;;;;;;5069240;28;25005;-46
2022/05/17 06:39:16;;;;;;;10.85;9.85;;;;;;;;;;5065790;28;25722;-46
2022/05/17 06:41:43;;;;;;;11.25;10.25;;;;;;;;;;5058509;28;24457;-46
2022/05/17 06:44:08;;;;;;;12.85;11.75;;;;;;;;;;5062593;28;24514;-46
2022/05/17 06:46:33;;;;;;;12.15;11.05;;;;;;;;;;5065286;28;25100;-45
2022/05/17 06:48:58;;;;;;;10.60;9.70;;;;;;;;;;5054260;28;24430;-46
2022/05/17 06:51:23;;;;;;;10.90;10.00;;;;;;;;;;5056562;28;24431;-46
2022/05/17 06:53:49;;;;;;;12.57;11.53;;;;;;;;;;5057685;28;24433;-45
2022/05/17 06:56:14;;;;;;;12.32;11.13;;;;;;;;;;5047013;28;24495;-45
2022/05/17 06:58:40;;;;;;;11.52;10.52;;;;;;;;;;5060229;28;24430;-45
2022/05/17 07:01:05;;;;;;;12.10;11.10;;;;;;;;;;5067339;28;24460;-45
2022/05/17 07:03:30;;;;;;;12.67;11.37;;;;;;;;;;5067207;28;24434;-46
2022/05/17 07:05:55;;;;;;;11.80;10.80;;;;;;;;;;5067087;28;24827;-45
2022/05/17 07:08:21;;;;;;;13.00;11.70;;;;;;;;;;5070900;28;24429;-45
2022/05/17 07:13:29;;;;;;;11.93;10.93;;;;;;;;;;5087714;28;24729;-46
2022/05/17 07:15:56;;;;;;;11.18;10.07;;;;;;;;;;5087318;28;24473;-46
2022/05/17 07:18:23;;;;;;;11.80;10.60;;;;;;;;;;5082813;28;24419;-45
2022/05/17 07:20:48;;;;;;;11.93;10.80;;;;;;;;;;5067130;28;24414;-46
2022/05/17 07:23:14;;;;;;;10.93;10.03;;;;;;;;;;5066516;28;24441;-45
2022/05/17 07:25:43;;;;;;;11.00;10.00;;;;;;;;;;5082560;28;24916;-46
2022/05/17 07:28:09;;;;;;;11.25;10.35;;;;;;;;;;5087006;28;25239;-46
2022/05/17 07:30:34;;;;;;;11.88;10.77;;;;;;;;;;5087277;28;24418;-46
2022/05/17 07:32:59;;;;;;;11.60;10.40;;;;;;;;;;5086433;28;24781;-46
2022/05/17 07:35:24;;;;;;;11.30;10.20;;;;;;;;;;5075125;28;24465;-45
2022/05/17 07:37:50;;;;;;;10.40;9.60;;;;;;;;;;5066971;28;24749;-45
2022/05/17 07:40:15;;;;;;;9.98;8.98;;;;;;;;;;5064775;28;24932;-45
2022/05/17 07:42:40;;;;;;;10.33;9.53;;;;;;;;;;5067222;28;24395;-46
2022/05/17 07:45:07;;;;;;;9.47;8.60;;;;;;;;;;5067553;28;24475;-46
2022/05/17 07:47:33;;;;;;;9.63;8.82;;;;;;;;;;5066112;28;24406;-46
2022/05/17 07:49:58;;;;;;;9.83;8.93;;;;;;;;;;5067042;28;24501;-46
2022/05/17 07:52:23;;;;;;;8.90;8.10;;;;;;;;;;5066788;28;24537;-46
2022/05/17 07:54:48;;;;;;;9.80;9.00;;;;;;;;;;5066830;28;24394;-46
2022/05/17 07:57:13;;;;;;;9.20;8.50;;;;;;;;;;5066373;28;24413;-46
2022/05/17 07:59:38;;;;;;;9.10;8.40;;;;;;;;;;5064880;28;25206;-46
2022/05/17 08:02:04;;;;;;;9.47;8.77;;;;;;;;;;5066472;28;24403;-45
2022/05/17 08:04:29;;;;;;;8.70;8.00;;;;;;;;;;5066759;28;24749;-45
2022/05/17 08:06:56;;;;;;;9.30;8.60;;;;;;;;;;5066245;28;24434;-46
2022/05/17 08:09:21;;;;;;;8.32;7.53;;;;;;;;;;5066662;28;24395;-45
2022/05/17 08:11:46;;;;;;;8.73;7.93;;;;;;;;;;5066225;28;25025;-46
2022/05/17 08:14:11;;;;;;;8.50;7.80;;;;;;;;;;5066357;28;24917;-45
2022/05/17 08:16:37;;;;;;;8.50;7.85;;;;;;;;;;5066446;28;24429;-45
2022/05/17 08:19:02;;;;;;;7.93;7.23;;;;;;;;;;5066052;28;25006;-46
2022/05/17 08:21:27;;;;;;;8.20;7.50;;;;;;;;;;5066590;28;25014;-46
2022/05/17 08:23:52;;;;;;;8.75;8.05;;;;;;;;;;5066313;28;24422;-46
2022/05/17 08:29:01;;;;;;;8.93;8.13;;;;;;;;;;5065599;28;25062;-45
2022/05/17 08:31:26;;;;;;;8.53;7.80;;;;;;;;;;5065642;28;24540;-46
2022/05/17 08:33:51;;;;;;;10.82;8.30;;;;;;;;;;5066088;28;24441;-45
2022/05/17 08:36:17;;;;;;;9.63;8.82;;;;;;;;;;5066144;28;24399;-46
2022/05/17 08:38:48;;;;;;;10.32;9.52;;;;;;;;;;5066313;28;24782;-46
2022/05/17 08:41:24;;;;;;;10.70;9.80;;;;;;;;;;5065823;28;24433;-45
2022/05/17 08:43:50;;;;;;;9.45;8.65;;;;;;;;;;5065527;28;24399;-46
2022/05/17 08:46:34;;;;;;;9.93;9.03;;;;;;;;;;5066284;28;24402;-46
2022/05/17 08:49:18;;;;;;;9.40;8.70;;;;;;;;;;5065545;28;24518;-46
2022/05/17 08:51:43;;;;;;;10.82;9.80;;;;;;;;;;5068492;28;24422;-46
2022/05/17 08:54:09;;;;;;;9.77;8.98;;;;;;;;;;5069244;28;24406;-46
2022/05/17 08:56:36;;;;;;;9.50;8.70;;;;;;;;;;5069455;28;24395;-46
2022/05/17 08:59:04;;;;;;;10.45;9.65;;;;;;;;;;5071783;28;24426;-45
2022/05/17 09:01:34;;;;;;;10.05;9.25;;;;;;;;;;5089924;28;24398;-46
2022/05/17 09:04:05;;;;;;;10.63;9.83;;;;;;;;;;5090137;28;24383;-46
2022/05/17 09:06:30;;;;;;;10.00;9.20;;;;;;;;;;5089477;28;24398;-46
2022/05/17 09:09:03;;;;;;;11.13;9.00;;;;;;;;;;5089019;28;24409;-46
2022/05/17 09:11:40;;;;;;;10.60;9.70;;;;;;;;;;5068824;28;24852;-46
2022/05/17 09:14:15;;;;;;;9.32;8.63;;;;;;;;;;5069126;28;24485;-46
2022/05/17 09:16:42;;;;;;;10.73;9.82;;;;;;;;;;5069383;28;24764;-45
2022/05/17 09:19:08;;;;;;;10.93;9.90;;;;;;;;;;5068582;28;24933;-46
2022/05/17 09:21:35;;;;;;;10.50;9.60;;;;;;;;;;5068782;28;24465;-44
2022/05/17 09:24:19;;;;;;;10.93;10.02;;;;;;;;;;5069546;28;24417;-45
2022/05/17 09:26:52;;;;;;;11.00;10.10;;;;;;;;;;5068921;28;24513;-46
2022/05/17 09:29:38;;;;;;;11.82;10.73;;;;;;;;;;5068732;28;24431;-45
2022/05/17 09:32:06;;;;;;;10.50;9.50;;;;;;;;;;5068877;28;24450;-45
2022/05/17 09:34:34;;;;;;;11.82;10.63;;;;;;;;;;5069220;28;24734;-45
2022/05/17 09:37:11;;;;;;;11.85;10.75;;;;;;;;;;5069096;28;24996;-46
2022/05/17 09:39:36;;;;;;;13.10;12.03;;;;;;;;;;5068818;28;24916;-45
2022/05/17 09:42:03;;;;;;;11.87;10.87;;;;;;;;;;5069053;28;24480;-45
2022/05/17 09:44:30;;;;;;;11.60;10.50;;;;;;;;;;5067196;28;24963;-46
2022/05/17 09:46:57;;;;;;;10.40;9.50;;;;;;;;;;5069007;28;24875;-46
2022/05/17 09:52:32;;;;;;;10.60;9.80;;;;;;;;;;5068742;28;24475;-46
2022/05/17 09:55:21;;;;;;;11.77;10.77;;;;;;;;;;5060083;28;25024;-46
2022/05/17 09:57:57;;;;;;;11.30;10.20;;;;;;;;;;5068506;28;24464;-46
2022/05/17 10:00:24;;;;;;;11.85;10.65;;;;;;;;;;5068266;28;24440;-45
2022/05/17 10:03:00;;;;;;;11.15;10.15;;;;;;;;;;5067543;28;24441;-45
2022/05/17 10:05:27;;;;;;;11.40;10.40;;;;;;;;;;5068007;28;25030;-45
2022/05/17 10:08:00;;;;;;;11.17;10.17;;;;;;;;;;5078657;28;25058;-45
2022/05/17 10:10:35;;;;;;;11.18;10.27;;;;;;;;;;5088146;28;25035;-45
2022/05/17 10:13:07;;;;;;;12.20;11.10;;;;;;;;;;5080907;28;24742;-45
2022/05/17 10:15:34;;;;;;;12.90;11.70;;;;;;;;;;5067897;28;24489;-46
2022/05/17 10:18:05;;;;;;;11.38;10.40;;;;;;;;;;5067976;28;24449;-45
2022/05/17 10:20:32;;;;;;;10.90;10.00;;;;;;;;;;5067687;28;24407;-45
2022/05/17 10:22:59;;;;;;;11.10;10.13;;;;;;;;;;5067814;28;24393;-46
2022/05/17 10:25:24;;;;;;;11.23;10.13;;;;;;;;;;5087083;28;24526;-45
2022/05/17 10:27:52;;;;;;;12.80;11.70;;;;;;;;;;5088078;28;24484;-45
2022/05/17 10:30:25;;;;;;;12.20;11.30;;;;;;;;;;5087571;28;24541;-46
2022/05/17 10:32:57;;;;;;;12.95;11.70;;;;;;;;;;5088270;28;24465;-45
2022/05/17 10:35:42;;;;;;;11.50;10.50;;;;;;;;;;5070899;28;24874;-44
2022/05/17 10:38:10;;;;;;;13.30;12.10;;;;;;;;;;5067332;28;24414;-45
2022/05/17 10:40:43;;;;;;;14.00;12.60;;;;;;;;;;5069658;28;24642;-46
2022/05/17 10:43:09;;;;;;;13.40;12.20;;;;;;;;;;5088081;28;24382;-45
2022/05/17 10:45:35;;;;;;;13.20;12.13;;;;;;;;;;5088321;28;24752;-45
2022/05/17 10:48:19;;;;;;;12.50;11.30;;;;;;;;;;5087900;28;24390;-44
2022/05/17 10:50:57;;;;;;;12.57;11.50;;;;;;;;;;5085518;28;24434;-45
2022/05/17 10:53:31;;;;;;;13.88;12.77;;;;;;;;;;5087549;28;24430;-45
2022/05/17 10:56:20;;;;;;;14.52;13.23;;;;;;;;;;5087814;28;24390;-45
2022/05/17 10:59:04;;;;;;;14.38;13.20;;;;;;;;;;5039093;28;24422;-45
2022/05/17 11:01:33;;;;;;;13.45;12.35;;;;;;;;;;5082620;28;24505;-45
2022/05/17 11:04:07;;;;;;;12.68;11.68;;;;;;;;;;5088037;28;24463;-45
2022/05/17 11:06:37;;;;;;;12.25;11.25;;;;;;;;;;5087784;28;24387;-45
2022/05/17 11:09:14;;;;;;;12.98;11.95;;;;;;;;;;5085345;28;24799;-45
2022/05/17 11:11:59;;;;;;;12.65;11.65;;;;;;;;;;5081951;28;24959;-45
2022/05/17 11:14:28;;;;;;;12.90;11.98;;;;;;;;;;5086510;28;24505;-45
2022/05/17 11:17:12;;;;;;;12.65;11.65;;;;;;;;;;5087234;28;24473;-45
2022/05/17 11:19:46;;;;;;;11.60;10.63;;;;;;;;;;5086729;28;24929;-45
2022/05/17 11:22:17;;;;;;;10.77;9.88;;;;;;;;;;5084998;28;24545;-45
2022/05/17 11:25:01;;;;;;;11.98;10.88;;;;;;;;;;5086842;28;24398;-45
2022/05/17 11:27:29;;;;;;;10.65;9.95;;;;;;;;;;5087086;28;24398;-45
2022/05/17 11:30:14;;;;;;;11.32;10.43;;;;;;;;;;5086790;28;24426;-45
2022/05/17 11:32:42;;;;;;;10.63;9.82;;;;;;;;;;5062916;28;24470;-45
2022/05/17 11:35:27;;;;;;;9.40;8.80;;;;;;;;;;5065892;28;21368;-46
2022/05/17 11:37:54;;;;;;;10.60;9.80;;;;;;;;;;5065280;28;25037;-46
2022/05/17 11:40:38;;;;;;;10.85;9.95;;;;;;;;;;5066972;28;24438;-46
2022/05/17 11:45:51;;;;;;;9.50;8.80;;;;;;;;;;5066075;28;24370;-46
2022/05/17 11:48:20;;;;;;;9.88;9.18;;;;;;;;;;5066858;28;24391;-45
2022/05/17 11:50:52;;;;;;;12.27;11.27;;;;;;;;;;5066343;28;24979;-46
2022/05/17 11:53:23;;;;;;;10.05;9.15;;;;;;;;;;5066570;28;24406;-45
2022/05/17 11:56:06;;;;;;;10.20;9.40;;;;;;;;;;5070576;28;24506;-45
2022/05/17 11:58:32;;;;;;;10.13;9.23;;;;;;;;;;5067094;28;24375;-46
2022/05/17 12:00:57;;;;;;;12.10;11.10;;;;;;;;;;5064746;28;24734;-45
2022/05/17 12:03:41;;;;;;;9.60;8.70;;;;;;;;;;5066709;28;24405;-46
2022/05/17 12:06:08;;;;;;;10.90;10.00;;;;;;;;;;5066667;28;24832;-46
2022/05/17 12:08:37;;;;;;;9.07;8.20;;;;;;;;;;5067071;28;24401;-45
2022/05/17 12:11:05;;;;;;;8.82;8.20;;;;;;;;;;5066477;28;24387;-46
2022/05/17 12:13:33;;;;;;;9.70;8.70;;;;;;;;;;5066512;28;24422;-45
2022/05/17 12:15:58;;;;;;;10.20;9.45;;;;;;;;;;5070740;28;24426;-45
2022/05/17 12:18:35;;;;;;;9.70;8.90;;;;;;;;;;5086730;28;24455;-45
2022/05/17 12:21:12;;;;;;;9.80;9.10;;;;;;;;;;5084209;28;24386;-46
2022/05/17 12:23:45;;;;;;;9.40;8.70;;;;;;;;;;5086792;28;24483;-46
2022/05/17 12:26:15;;;;;;;9.13;8.43;;;;;;;;;;5088519;28;25006;-45
2022/05/17 12:28:42;;;;;;;9.95;9.15;;;;;;;;;;5090569;28;24501;-45
2022/05/17 12:31:09;;;;;;;9.10;8.40;;;;;;;;;;5090105;28;24967;-45
2022/05/17 12:33:36;;;;;;;9.88;9.05;;;;;;;;;;5090910;28;24413;-46
2022/05/17 12:36:12;;;;;;;8.68;8.07;;;;;;;;;;5088239;28;24438;-45
2022/05/17 12:44:07;;;;;;;9.90;9.10;;;;;;;;;;5049988;28;24378;-45
2022/05/17 12:46:34;;;;;;;8.30;7.70;;;;;;;;;;5051992;28;24402;-45
2022/05/17 12:49:02;;;;;;;8.40;7.80;;;;;;;;;;5070464;28;24387;-45
2022/05/17 12:51:27;;;;;;;8.63;7.93;;;;;;;;;;5069693;28;24474;-45
2022/05/17 12:53:53;;;;;;;8.93;8.23;;;;;;;;;;5069741;28;24399;-46
2022/05/17 12:56:18;;;;;;;8.57;7.97;;;;;;;;;;5069188;28;24395;-45
2022/05/17 12:58:48;;;;;;;8.07;7.47;;;;;;;;;;5082903;28;24416;-45
2022/05/17 13:01:13;;;;;;;10.45;9.45;;;;;;;;;;5089386;28;24744;-45
2022/05/17 13:03:43;;;;;;;7.67;7.17;;;;;;;;;;5090241;28;24394;-45
2022/05/17 13:06:08;;;;;;;8.75;8.05;;;;;;;;;;5089627;28;24452;-45
2022/05/17 13:08:36;;;;;;;9.25;8.55;;;;;;;;;;5085643;28;24475;-45
2022/05/17 13:11:18;;;;;;;8.57;7.88;;;;;;;;;;5089472;28;24394;-45
2022/05/17 13:13:44;;;;;;;7.90;7.30;;;;;;;;;;5090016;28;24389;-45
2022/05/17 13:16:16;;;;;;;8.50;7.90;;;;;;;;;;5089525;28;24399;-45
2022/05/17 13:18:50;;;;;;;8.88;8.07;;;;;;;;;;5085070;28;24549;-45
2022/05/17 13:21:27;;;;;;;8.10;7.40;;;;;;;;;;5068783;28;24414;-45
2022/05/17 13:23:57;;;;;;;8.40;7.70;;;;;;;;;;5069559;28;24694;-45
2022/05/17 13:26:25;;;;;;;8.60;7.80;;;;;;;;;;5078910;28;24793;-45
2022/05/17 13:28:50;;;;;;;8.70;8.00;;;;;;;;;;5089604;28;24447;-45
2022/05/17 13:31:19;;;;;;;9.20;8.50;;;;;;;;;;5088660;28;24419;-46
2022/05/17 13:34:01;;;;;;;8.43;7.83;;;;;;;;;;5089499;28;24977;-45
2022/05/17 13:36:29;;;;;;;7.55;7.05;;;;;;;;;;5085041;28;24422;-46
2022/05/17 13:38:54;;;;;;;7.30;6.80;;;;;;;;;;5089710;28;24402;-46
2022/05/17 13:41:39;;;;;;;9.10;8.30;;;;;;;;;;5088964;28;24395;-45
2022/05/17 13:44:05;;;;;;;8.40;7.70;;;;;;;;;;5088989;28;24418;-45
2022/05/17 13:46:34;;;;;;;8.07;7.47;;;;;;;;;;5084172;28;24457;-45
2022/05/17 13:49:25;;;;;;;8.63;7.93;;;;;;;;;;5089181;28;24426;-45
2022/05/17 13:51:53;;;;;;;8.70;8.00;;;;;;;;;;5085363;28;24505;-45
2022/05/17 13:54:23;;;;;;;7.80;7.20;;;;;;;;;;5070635;28;24407;-44
2022/05/17 13:56:51;;;;;;;9.80;9.00;;;;;;;;;;5069064;28;24451;-44
2022/05/17 13:59:18;;;;;;;9.00;8.40;;;;;;;;;;5068634;28;24959;-45
2022/05/17 14:01:50;;;;;;;8.73;8.02;;;;;;;;;;5068813;28;24482;-45
2022/05/17 14:04:21;;;;;;;8.18;7.57;;;;;;;;;;5068571;28;24971;-45
2022/05/17 14:06:54;;;;;;;9.57;8.87;;;;;;;;;;5068284;28;24965;-45
2022/05/17 14:12:11;;;;;;;9.00;8.30;;;;;;;;;;5088557;28;24502;-45
2022/05/17 14:14:36;;;;;;;9.30;8.60;;;;;;;;;;5088494;28;24478;-45
2022/05/17 14:17:02;;;;;;;8.50;7.90;;;;;;;;;;5088504;28;24579;-45
2022/05/17 14:19:30;;;;;;;7.43;6.93;;;;;;;;;;5088340;28;24417;-45
2022/05/17 14:21:57;;;;;;;8.30;7.70;;;;;;;;;;5058300;28;24433;-45
2022/05/17 14:24:22;;;;;;;8.10;7.30;;;;;;;;;;5083615;28;25039;-45
2022/05/17 14:26:49;;;;;;;7.18;6.57;;;;;;;;;;5088624;28;24501;-45
2022/05/17 14:29:14;;;;;;;7.10;6.60;;;;;;;;;;5079357;28;24454;-45
2022/05/17 14:31:41;;;;;;;6.67;6.17;;;;;;;;;;5074473;28;24470;-44
2022/05/17 14:34:08;;;;;;;8.05;7.45;;;;;;;;;;5081382;28;24463;-44
2022/05/17 14:36:34;;;;;;;7.83;7.27;;;;;;;;;;5088361;28;24418;-44
2022/05/17 14:38:59;;;;;;;6.80;6.40;;;;;;;;;;5081830;28;24487;-45
2022/05/17 14:41:24;;;;;;;8.87;8.07;;;;;;;;;;5064358;28;24976;-45
2022/05/17 14:43:49;;;;;;;7.67;7.07;;;;;;;;;;5066872;28;24445;-44
2022/05/17 14:46:16;;;;;;;6.90;6.40;;;;;;;;;;5068177;28;24480;-45
2022/05/17 14:48:42;;;;;;;7.50;6.90;;;;;;;;;;5065835;28;24422;-44
2022/05/17 14:51:08;;;;;;;7.55;6.95;;;;;;;;;;5066999;28;24781;-44
2022/05/17 14:53:34;;;;;;;8.10;7.60;;;;;;;;;;5066537;28;24418;-45
2022/05/17 14:55:59;;;;;;;7.93;7.22;;;;;;;;;;5067082;28;24399;-45